Terminal Aerodrome Forecast
Issued by NWS Charleston, WV

Current Version | Previous Version | Text Only | Print | Product List | Glossary Off
Versions: 1 2 3 4 5 6 7 8 9 10 11 12 13 14 15 16 17 18 19 20 21

991
FTUS41 KRLX 191120
TAFHTS
TAF
KHTS 191120Z 1912/2012 30009G19KT P6SM BKN035
     FM191900 33009G17KT P6SM BKN050
     FM200100 31005KT P6SM SCT080=

USA.gov is the U.S. government's official web portal to all federal, state and local government web resources and services.